createdAt,value
2018-12-12T00:00:43.782Z,72.37
2018-12-12T00:01:43.620Z,72.56
2018-12-12T00:02:43.768Z,72.66
2018-12-12T00:03:43.622Z,72.66
2018-12-12T00:05:43.681Z,72.75
2018-12-12T00:06:43.717Z,72.56
2018-12-12T00:07:44.046Z,72.66
2018-12-12T00:08:43.788Z,72.66
2018-12-12T00:09:43.806Z,72.75
2018-12-12T00:10:43.841Z,72.95
2018-12-12T00:11:44.005Z,72.95
2018-12-12T00:12:43.896Z,72.37
2018-12-12T00:13:43.926Z,72.37
2018-12-12T00:14:45.712Z,72.47
2018-12-12T00:15:43.989Z,72.85
2018-12-12T00:17:44.143Z,72.75
2018-12-12T00:18:44.027Z,72.56
2018-12-12T00:19:44.115Z,72.47
2018-12-12T00:20:44.088Z,72.66
2018-12-12T00:21:44.422Z,72.75
2018-12-12T00:22:44.204Z,72.28
2018-12-12T00:23:44.276Z,72.37
2018-12-12T00:24:44.261Z,72.28
2018-12-12T00:25:44.241Z,72.28
2018-12-12T00:26:44.274Z,72.18
2018-12-12T00:27:44.395Z,72.28
2018-12-12T00:28:44.679Z,72.28
2018-12-12T00:29:44.662Z,72.37
2018-12-12T00:30:44.441Z,72.66
2018-12-12T00:31:44.468Z,72.18
2018-12-12T00:33:44.486Z,72.18
2018-12-12T00:34:44.512Z,72.56
2018-12-12T00:35:44.844Z,72.56
2018-12-12T00:36:44.632Z,72.28
2018-12-12T00:37:44.657Z,72.18
2018-12-12T00:38:44.683Z,72.37
2018-12-12T00:39:44.719Z,72.28
2018-12-12T00:40:44.763Z,72.28
2018-12-12T00:41:44.787Z,72.37
2018-12-12T00:42:45.116Z,72.28
2018-12-12T00:43:44.790Z,72.18
2018-12-12T00:44:45.013Z,72.28
2018-12-12T00:45:44.846Z,72.28
2018-12-12T00:46:44.878Z,72.56
2018-12-12T00:47:44.907Z,72.37
2018-12-12T00:48:44.955Z,72.47
2018-12-12T00:49:45.293Z,72.37
2018-12-12T00:50:45.052Z,72.56
2018-12-12T00:51:45.086Z,72.56
2018-12-12T00:52:45.112Z,72.47
2018-12-12T00:53:45.089Z,72.47
2018-12-12T00:54:45.224Z,71.98
2018-12-12T00:55:45.251Z,72.47
2018-12-12T00:56:45.534Z,72.18
2018-12-12T00:57:45.256Z,72.47
2018-12-12T00:58:45.396Z,72.28
2018-12-12T00:59:45.275Z,72.18
2018-12-12T01:00:45.298Z,72.28
2018-12-12T01:01:45.390Z,72.18
2018-12-12T01:02:45.415Z,72.18
2018-12-12T01:03:45.702Z,71.98
2018-12-12T01:04:45.420Z,72.18
2018-12-12T01:05:45.453Z,72.18
2018-12-12T01:06:45.534Z,72.18
2018-12-12T01:07:45.616Z,72.18
2018-12-12T01:08:45.540Z,72.08
2018-12-12T01:09:45.618Z,72.37
2018-12-12T01:10:45.959Z,72.28
2018-12-12T01:11:45.689Z,72.28
2018-12-12T01:12:45.720Z,72.28
2018-12-12T01:13:45.697Z,72.28
2018-12-12T01:14:45.795Z,72.28
2018-12-12T01:15:45.776Z,72.18
2018-12-12T01:16:45.839Z,72.28
2018-12-12T01:17:46.177Z,72.18
2018-12-12T01:18:45.910Z,72.18
2018-12-12T01:19:45.934Z,72.37
2018-12-12T01:20:45.967Z,72.18
2018-12-12T01:21:45.988Z,72.28
2018-12-12T01:22:46.021Z,72.28
2018-12-12T01:23:46.049Z,72.08
2018-12-12T01:24:46.383Z,72.28
2018-12-12T01:25:46.079Z,72.18
2018-12-12T01:26:46.135Z,72.28
2018-12-12T01:27:46.167Z,72.08
2018-12-12T01:28:46.204Z,72.47
2018-12-12T01:30:46.263Z,72.37
2018-12-12T01:31:46.600Z,72.08
2018-12-12T01:32:46.331Z,72.47
2018-12-12T01:33:46.356Z,72.28
2018-12-12T01:34:46.378Z,72.47
2018-12-12T01:35:46.409Z,72.37
2018-12-12T01:36:46.440Z,72.28
2018-12-12T01:37:46.869Z,72.28
2018-12-12T01:38:46.508Z,72.28
2018-12-12T01:39:46.539Z,72.47
2018-12-12T01:40:46.515Z,72.37
2018-12-12T01:41:46.549Z,72.37
2018-12-12T01:42:46.628Z,72.37
2018-12-12T01:43:46.960Z,72.18
2018-12-12T01:44:46.641Z,72.18
2018-12-12T01:45:46.718Z,72.28
2018-12-12T01:46:46.744Z,72.37
2018-12-12T01:47:46.723Z,72.28
2018-12-12T01:48:46.807Z,71.98
2018-12-12T01:49:47.141Z,72.28
2018-12-12T01:50:46.868Z,71.70
2018-12-12T01:51:46.849Z,71.70
2018-12-12T01:52:46.940Z,72.37
2018-12-12T01:53:46.912Z,71.80
2018-12-12T01:54:46.997Z,72.08
2018-12-12T01:55:47.096Z,71.80
2018-12-12T01:56:47.354Z,72.08
2018-12-12T01:57:47.082Z,72.18
2018-12-12T01:58:47.131Z,71.89
2018-12-12T01:59:47.111Z,71.98
2018-12-12T02:00:47.135Z,71.80
2018-12-12T02:01:47.159Z,71.89
2018-12-12T02:02:47.197Z,71.89
2018-12-12T02:03:47.564Z,71.89
2018-12-12T02:04:47.294Z,71.80
2018-12-12T02:05:47.338Z,71.80
2018-12-12T02:06:47.353Z,71.89
2018-12-12T02:07:47.387Z,71.80
2018-12-12T02:08:47.412Z,72.08
2018-12-12T02:09:47.450Z,72.18
2018-12-12T02:10:47.726Z,72.28
2018-12-12T02:11:47.507Z,72.08
2018-12-12T02:13:47.868Z,71.89
2018-12-12T02:14:47.600Z,72.18
2018-12-12T02:15:47.638Z,72.08
2018-12-12T02:16:47.661Z,72.18
2018-12-12T02:17:48.187Z,71.80
2018-12-12T02:18:47.824Z,72.18
2018-12-12T02:19:47.696Z,71.80
2018-12-12T02:20:47.781Z,72.18
2018-12-12T02:21:47.777Z,72.18
2018-12-12T02:22:47.843Z,71.80
2018-12-12T02:23:47.914Z,72.18
2018-12-12T02:24:48.202Z,72.18
2018-12-12T02:25:47.878Z,72.08
2018-12-12T02:26:47.961Z,72.18
2018-12-12T02:27:47.939Z,71.80
2018-12-12T02:28:47.969Z,71.98
2018-12-12T02:29:48.004Z,71.89
2018-12-12T02:30:48.084Z,71.98
2018-12-12T02:31:48.363Z,71.89
2018-12-12T02:32:48.145Z,71.80
2018-12-12T02:33:48.121Z,71.98
2018-12-12T02:34:48.152Z,71.98
2018-12-12T02:35:48.237Z,71.80
2018-12-12T02:36:48.211Z,71.89
2018-12-12T02:37:48.292Z,71.89
2018-12-12T02:38:48.576Z,71.80
2018-12-12T02:39:48.329Z,71.98
2018-12-12T02:40:48.392Z,71.98
2018-12-12T02:41:48.428Z,71.89
2018-12-12T02:42:48.461Z,71.70
2018-12-12T02:43:48.477Z,71.89
2018-12-12T02:44:48.460Z,71.89
2018-12-12T02:45:48.785Z,71.89
2018-12-12T02:46:48.573Z,71.51
2018-12-12T02:48:48.625Z,71.51
2018-12-12T02:49:48.630Z,71.89
2018-12-12T02:50:48.734Z,71.89
2018-12-12T02:51:48.674Z,71.89
2018-12-12T02:52:49.063Z,71.89
2018-12-12T02:53:48.779Z,71.89
2018-12-12T02:54:48.818Z,71.70
2018-12-12T02:55:48.802Z,71.89
2018-12-12T02:56:48.872Z,71.89
2018-12-12T02:57:48.905Z,71.98
2018-12-12T02:58:48.937Z,71.80
2018-12-12T02:59:49.266Z,71.51
2018-12-12T03:00:49.044Z,71.89
2018-12-12T03:01:48.977Z,72.08
2018-12-12T03:02:49.050Z,71.89
2018-12-12T03:03:49.080Z,71.89
2018-12-12T03:04:49.116Z,71.98
2018-12-12T03:05:49.142Z,71.89
2018-12-12T03:06:49.473Z,71.98
2018-12-12T03:07:49.251Z,71.80
2018-12-12T03:08:49.184Z,71.98
2018-12-12T03:09:49.268Z,71.80
2018-12-12T03:10:49.307Z,71.80
2018-12-12T03:11:49.327Z,71.70
2018-12-12T03:12:49.319Z,71.41
2018-12-12T03:13:49.645Z,71.41
2018-12-12T03:14:49.430Z,71.61
2018-12-12T03:15:49.450Z,71.70
2018-12-12T03:16:49.482Z,71.98
2018-12-12T03:17:49.563Z,71.98
2018-12-12T03:18:49.542Z,71.70
2018-12-12T03:19:49.568Z,71.61
2018-12-12T03:20:49.902Z,71.70
2018-12-12T03:21:49.589Z,71.89
2018-12-12T03:22:49.666Z,71.89
2018-12-12T03:23:49.695Z,71.41
2018-12-12T03:24:49.778Z,71.80
2018-12-12T03:25:49.706Z,71.61
2018-12-12T03:26:49.787Z,71.80
2018-12-12T03:27:50.121Z,71.61
2018-12-12T03:28:49.843Z,71.61
2018-12-12T03:29:49.882Z,71.80
2018-12-12T03:30:49.908Z,71.80
2018-12-12T03:31:49.931Z,71.80
2018-12-12T03:32:49.923Z,71.41
2018-12-12T03:33:50.300Z,71.80
2018-12-12T03:34:50.023Z,71.70
2018-12-12T03:35:50.022Z,71.31
2018-12-12T03:36:50.100Z,71.51
2018-12-12T03:37:50.063Z,71.41
2018-12-12T03:38:50.151Z,71.61
2018-12-12T03:39:50.429Z,71.41
2018-12-12T03:40:50.162Z,71.41
2018-12-12T03:41:50.191Z,71.70
2018-12-12T03:42:50.213Z,71.80
2018-12-12T03:43:50.269Z,71.70
2018-12-12T03:44:50.328Z,71.41
2018-12-12T03:45:50.611Z,71.41
2018-12-12T03:46:50.390Z,71.80
2018-12-12T03:47:50.435Z,71.70
2018-12-12T03:48:50.416Z,71.41
2018-12-12T03:49:50.479Z,71.41
2018-12-12T03:50:50.526Z,71.41
2018-12-12T03:51:50.557Z,71.51
2018-12-12T03:52:50.827Z,71.41
2018-12-12T03:53:50.551Z,71.51
2018-12-12T03:54:50.689Z,71.41
2018-12-12T03:56:50.697Z,71.51
2018-12-12T03:57:50.677Z,71.41
2018-12-12T03:59:50.743Z,71.51
2018-12-12T04:00:51.120Z,71.41
2018-12-12T04:01:50.845Z,71.51
2018-12-12T04:02:50.878Z,71.41
2018-12-12T04:03:50.908Z,71.41
2018-12-12T04:04:50.882Z,71.41
2018-12-12T04:05:50.968Z,71.41
2018-12-12T04:06:50.995Z,71.41
2018-12-12T04:07:51.281Z,71.41
2018-12-12T04:08:51.055Z,71.41
2018-12-12T04:09:51.202Z,71.41
2018-12-12T04:10:51.119Z,71.41
2018-12-12T04:11:51.097Z,71.41
2018-12-12T04:12:51.177Z,71.41
2018-12-12T04:13:51.158Z,71.31
2018-12-12T04:14:51.537Z,71.31
2018-12-12T04:15:51.272Z,71.31
2018-12-12T04:16:51.407Z,71.41
2018-12-12T04:17:51.337Z,71.41
2018-12-12T04:18:51.380Z,71.51
2018-12-12T04:20:51.376Z,71.41
2018-12-12T04:21:51.802Z,71.31
2018-12-12T04:22:51.478Z,71.31
2018-12-12T04:23:51.515Z,71.31
2018-12-12T04:24:51.792Z,71.41
2018-12-12T04:25:51.576Z,71.31
2018-12-12T04:26:51.607Z,71.22
2018-12-12T04:27:51.638Z,71.31
2018-12-12T04:28:51.694Z,71.51
2018-12-12T04:29:51.641Z,71.22
2018-12-12T04:30:51.724Z,71.51
2018-12-12T04:31:51.765Z,71.51
2018-12-12T04:32:51.741Z,71.41
2018-12-12T04:33:51.868Z,71.51
2018-12-12T04:34:52.198Z,71.51
2018-12-12T04:35:51.911Z,71.22
2018-12-12T04:36:51.910Z,71.31
2018-12-12T04:37:51.934Z,71.70
2018-12-12T04:38:51.979Z,71.31
2018-12-12T04:39:51.955Z,71.31
2018-12-12T04:41:46.694Z,71.31
2018-12-12T04:42:46.483Z,71.31
2018-12-12T04:43:46.456Z,71.31
2018-12-12T04:44:46.493Z,71.31
2018-12-12T04:45:46.616Z,71.31
2018-12-12T04:46:46.605Z,71.31
2018-12-12T04:47:46.878Z,71.12
2018-12-12T04:48:46.625Z,71.61
2018-12-12T04:49:46.637Z,71.61
2018-12-12T04:50:46.674Z,71.31
2018-12-12T04:51:46.758Z,71.51
2018-12-12T04:52:46.778Z,71.51
2018-12-12T04:53:47.070Z,71.41
2018-12-12T04:54:46.789Z,71.51
2018-12-12T04:55:46.892Z,71.61
2018-12-12T04:56:46.887Z,71.51
2018-12-12T04:57:46.934Z,71.41
2018-12-12T04:58:46.916Z,71.41
2018-12-12T04:59:46.998Z,71.31
2018-12-12T05:00:47.269Z,71.70
2018-12-12T05:01:47.008Z,71.61
2018-12-12T05:02:47.095Z,71.31
2018-12-12T05:03:47.128Z,71.70
2018-12-12T05:04:47.095Z,71.41
2018-12-12T05:05:47.179Z,71.80
2018-12-12T05:06:47.204Z,71.61
2018-12-12T05:07:47.494Z,71.80
2018-12-12T05:08:47.214Z,71.61
2018-12-12T05:09:47.300Z,71.80
2018-12-12T05:10:47.279Z,71.70
2018-12-12T05:11:47.310Z,71.70
2018-12-12T05:13:47.416Z,71.41
2018-12-12T05:14:47.706Z,71.41
2018-12-12T05:15:47.481Z,71.41
2018-12-12T05:16:47.467Z,71.31
2018-12-12T05:17:47.545Z,71.80
2018-12-12T05:18:47.519Z,71.41
2018-12-12T05:19:47.603Z,71.41
2018-12-12T05:20:47.633Z,71.61
2018-12-12T05:21:47.969Z,71.41
2018-12-12T05:22:47.644Z,71.41
2018-12-12T05:23:47.724Z,71.31
2018-12-12T05:24:47.754Z,71.31
2018-12-12T05:25:47.732Z,71.41
2018-12-12T05:26:47.816Z,71.22
2018-12-12T05:27:47.850Z,71.12
2018-12-12T05:28:48.121Z,71.12
2018-12-12T05:29:47.857Z,71.03
2018-12-12T05:30:47.891Z,71.12
2018-12-12T05:31:47.920Z,70.93
2018-12-12T05:32:48.008Z,71.12
2018-12-12T05:33:48.031Z,71.41
2018-12-12T05:34:48.009Z,71.31
2018-12-12T05:35:48.336Z,71.31
2018-12-12T05:36:48.073Z,71.22
2018-12-12T05:37:51.778Z,71.12
2018-12-12T05:38:48.182Z,71.12
2018-12-12T05:39:48.211Z,71.12
2018-12-12T05:40:48.192Z,71.22
2018-12-12T05:41:48.215Z,71.22
2018-12-12T05:42:48.551Z,71.12
2018-12-12T05:43:48.332Z,71.12
2018-12-12T05:44:48.306Z,71.12
2018-12-12T05:45:48.352Z,71.22
2018-12-12T05:46:48.376Z,71.22
2018-12-12T05:47:48.405Z,71.22
2018-12-12T05:48:48.487Z,71.12
2018-12-12T05:49:48.760Z,71.51
2018-12-12T05:50:48.496Z,71.12
2018-12-12T05:51:48.576Z,71.41
2018-12-12T05:52:48.558Z,71.22
2018-12-12T05:53:48.632Z,71.12
2018-12-12T05:54:48.619Z,71.22
2018-12-12T05:55:48.698Z,71.22
2018-12-12T05:56:52.297Z,71.12
2018-12-12T05:57:48.775Z,71.12
2018-12-12T05:58:48.787Z,71.12
2018-12-12T05:59:48.820Z,71.12
2018-12-12T06:00:48.845Z,71.31
2018-12-12T06:01:48.830Z,71.22
2018-12-12T06:02:48.860Z,71.41
2018-12-12T06:03:49.186Z,71.12
2018-12-12T06:04:48.919Z,71.22
2018-12-12T06:05:48.998Z,71.12
2018-12-12T06:06:48.979Z,71.12
2018-12-12T06:07:49.075Z,71.22
2018-12-12T06:09:49.128Z,71.31
2018-12-12T06:10:49.411Z,70.93
2018-12-12T06:11:49.133Z,71.03
2018-12-12T06:12:49.164Z,71.22
2018-12-12T06:13:49.256Z,71.41
2018-12-12T06:14:49.286Z,71.22
2018-12-12T06:15:49.310Z,71.22
2018-12-12T06:16:49.286Z,71.22
2018-12-12T06:17:49.316Z,71.31
2018-12-12T06:18:49.401Z,71.12
2018-12-12T06:19:49.433Z,71.12
2018-12-12T06:21:49.441Z,71.03
2018-12-12T06:22:49.487Z,71.22
2018-12-12T06:23:49.551Z,71.22
2018-12-12T06:24:49.531Z,71.12
2018-12-12T06:25:49.609Z,71.12
2018-12-12T06:26:49.647Z,71.22
2018-12-12T06:27:49.673Z,71.22
2018-12-12T06:28:49.656Z,71.22
2018-12-12T06:29:49.685Z,71.22
2018-12-12T06:30:49.705Z,71.41
2018-12-12T06:31:49.794Z,71.22
2018-12-12T06:32:49.823Z,71.51
2018-12-12T06:33:49.802Z,71.98
2018-12-12T06:34:50.130Z,71.70
2018-12-12T06:35:49.861Z,71.70
2018-12-12T06:36:49.940Z,71.41
2018-12-12T06:37:49.927Z,71.51
2018-12-12T06:38:49.956Z,71.31
2018-12-12T06:39:50.030Z,71.41
2018-12-12T06:40:50.061Z,71.51
2018-12-12T06:41:50.347Z,71.12
2018-12-12T06:42:50.080Z,71.31
2018-12-12T06:43:50.158Z,71.12
2018-12-12T06:44:50.200Z,71.22
2018-12-12T06:45:50.228Z,71.12
2018-12-12T06:46:50.254Z,71.03
2018-12-12T06:47:50.233Z,71.03
2018-12-12T06:48:50.258Z,71.22
2018-12-12T06:49:50.339Z,70.93
2018-12-12T06:50:50.318Z,71.22
2018-12-12T06:51:50.561Z,71.22
2018-12-12T06:52:50.394Z,71.22
2018-12-12T06:53:50.638Z,71.31
2018-12-12T06:54:50.571Z,71.31
2018-12-12T06:55:50.569Z,71.31
2018-12-12T06:56:50.548Z,71.12
2018-12-12T06:57:50.554Z,71.12
2018-12-12T06:58:50.631Z,71.41
2018-12-12T06:59:50.652Z,71.41
2018-12-12T07:00:50.935Z,71.03
2018-12-12T07:01:50.658Z,71.41
2018-12-12T07:02:50.680Z,71.41
2018-12-12T07:03:50.771Z,71.22
2018-12-12T07:04:50.791Z,71.22
2018-12-12T07:05:50.792Z,71.31
2018-12-12T07:06:50.857Z,71.41
2018-12-12T07:07:50.854Z,71.12
2018-12-12T07:08:52.025Z,71.41
2018-12-12T07:09:50.906Z,71.51
2018-12-12T07:10:50.933Z,71.98
2018-12-12T07:11:51.006Z,71.41
2018-12-12T07:12:50.989Z,71.22
2018-12-12T07:13:51.064Z,71.12
2018-12-12T07:14:51.055Z,71.22
2018-12-12T07:15:51.086Z,71.22
2018-12-12T07:16:51.112Z,71.41
2018-12-12T07:17:51.237Z,71.22
2018-12-12T07:18:51.470Z,71.31
2018-12-12T07:19:51.254Z,71.41
2018-12-12T07:20:51.230Z,71.31
2018-12-12T07:21:51.310Z,71.61
2018-12-12T07:22:51.287Z,71.41
2018-12-12T07:23:51.379Z,71.70
2018-12-12T07:24:51.351Z,71.31
2018-12-12T07:25:51.429Z,71.51
2018-12-12T07:26:51.410Z,71.70
2018-12-12T07:27:51.495Z,71.61
2018-12-12T07:29:51.552Z,71.89
2018-12-12T07:30:51.536Z,71.98
2018-12-12T07:31:51.618Z,71.89
2018-12-12T07:32:51.648Z,71.41
2018-12-12T07:33:51.628Z,71.61
2018-12-12T07:34:51.661Z,71.80
2018-12-12T07:35:51.742Z,71.51
2018-12-12T07:36:51.771Z,71.22
2018-12-12T07:37:51.804Z,71.41
2018-12-12T07:38:51.778Z,71.41
2018-12-12T07:39:51.855Z,71.41
2018-12-12T07:40:51.839Z,71.22
2018-12-12T07:41:51.869Z,71.51
2018-12-12T07:42:52.041Z,71.51
2018-12-12T07:43:52.230Z,71.70
2018-12-12T07:44:51.961Z,71.70
2018-12-12T07:45:52.042Z,71.61
2018-12-12T07:46:52.057Z,71.51
2018-12-12T07:47:52.215Z,71.98
2018-12-12T07:48:52.096Z,71.31
2018-12-12T07:49:52.467Z,71.41
2018-12-12T07:50:52.141Z,71.31
2018-12-12T07:51:52.220Z,71.41
2018-12-12T07:52:52.201Z,71.41
2018-12-12T07:53:52.232Z,71.31
2018-12-12T07:54:52.699Z,71.22
2018-12-12T07:55:52.600Z,71.31
2018-12-12T07:56:52.371Z,71.12
2018-12-12T07:57:52.357Z,71.03
2018-12-12T07:58:52.452Z,71.12
2018-12-12T07:59:52.466Z,71.31
2018-12-12T08:00:52.447Z,71.31
2018-12-12T08:01:52.478Z,71.41
2018-12-12T08:02:52.803Z,71.31
2018-12-12T08:03:52.590Z,71.31
2018-12-12T08:04:52.613Z,71.12
2018-12-12T08:05:52.633Z,71.41
2018-12-12T08:06:52.625Z,71.31
2018-12-12T08:07:52.662Z,71.31
2018-12-12T08:08:52.744Z,71.22
2018-12-12T08:09:53.016Z,71.31
2018-12-12T08:10:52.801Z,70.84
2018-12-12T08:11:52.840Z,71.03
2018-12-12T08:12:52.812Z,71.03
2018-12-12T08:13:52.900Z,70.84
2018-12-12T08:14:52.876Z,71.12
2018-12-12T08:15:52.959Z,71.12
2018-12-12T08:16:53.234Z,70.93
2018-12-12T08:17:52.959Z,70.84
2018-12-12T08:18:53.061Z,70.93
2018-12-12T08:19:53.070Z,70.74
2018-12-12T08:20:53.118Z,70.93
2018-12-12T08:21:53.083Z,71.03
2018-12-12T08:22:53.178Z,70.93
2018-12-12T08:23:53.448Z,70.93
2018-12-12T08:24:53.178Z,71.03
2018-12-12T08:25:53.229Z,70.45
2018-12-12T08:26:53.233Z,70.45
2018-12-12T08:27:53.267Z,70.93
2018-12-12T08:28:53.354Z,70.93
2018-12-12T08:29:53.331Z,70.84
2018-12-12T08:30:53.663Z,70.93
2018-12-12T08:31:53.438Z,70.84
2018-12-12T08:32:53.418Z,70.74
2018-12-12T08:33:53.454Z,70.74
2018-12-12T08:34:53.501Z,70.74
2018-12-12T08:35:53.565Z,70.74
2018-12-12T08:36:53.595Z,70.74
2018-12-12T08:37:53.873Z,70.64
2018-12-12T08:38:53.604Z,70.64
2018-12-12T08:39:53.701Z,70.74
2018-12-12T08:40:53.677Z,70.64
2018-12-12T08:41:53.747Z,70.74
2018-12-12T08:42:53.784Z,70.84
2018-12-12T08:43:53.802Z,70.74
2018-12-12T08:44:54.098Z,71.03
2018-12-12T08:45:53.815Z,70.84
2018-12-12T08:46:53.899Z,70.93
2018-12-12T08:47:53.928Z,70.45
2018-12-12T08:48:53.959Z,70.55
2018-12-12T08:49:53.986Z,70.36
2018-12-12T08:50:53.968Z,70.36
2018-12-12T08:51:54.049Z,70.36
2018-12-12T08:52:54.032Z,70.26
2018-12-12T08:53:54.115Z,70.36
2018-12-12T08:54:54.090Z,70.26
2018-12-12T08:55:54.169Z,70.26
2018-12-12T08:56:54.204Z,70.36
2018-12-12T08:57:54.490Z,70.36
2018-12-12T08:58:54.207Z,70.36
2018-12-12T08:59:54.288Z,70.07
2018-12-12T09:00:54.268Z,69.97
2018-12-12T09:01:54.354Z,70.07
2018-12-12T09:02:54.386Z,70.07
2018-12-12T09:03:54.418Z,70.26
2018-12-12T09:04:54.402Z,70.36
2018-12-12T09:05:54.487Z,70.36
2018-12-12T09:06:54.454Z,70.39
2018-12-12T09:07:54.538Z,70.29
2018-12-12T09:08:54.528Z,70.26
2018-12-12T09:09:54.549Z,70.17
2018-12-12T09:10:54.635Z,70.17
2018-12-12T09:11:54.612Z,70.26
2018-12-12T09:12:54.643Z,70.07
2018-12-12T09:13:54.721Z,70.36
2018-12-12T09:14:54.708Z,70.29
2018-12-12T09:15:55.030Z,70.55
2018-12-12T09:16:54.765Z,70.26
2018-12-12T09:17:54.793Z,70.49
2018-12-12T09:18:54.885Z,70.49
2018-12-12T09:19:54.903Z,70.36
2018-12-12T09:20:54.879Z,70.45
2018-12-12T09:21:54.915Z,70.45
2018-12-12T09:22:55.245Z,70.39
2018-12-12T09:23:54.971Z,70.29
2018-12-12T09:24:55.060Z,70.49
2018-12-12T09:25:55.036Z,70.49
2018-12-12T09:26:55.067Z,70.58
2018-12-12T09:27:55.149Z,70.49
2018-12-12T09:28:55.135Z,70.39
2018-12-12T09:29:55.225Z,70.29
2018-12-12T09:30:55.197Z,70.39
2018-12-12T09:31:55.280Z,70.29
2018-12-12T09:32:55.320Z,70.58
2018-12-12T09:33:55.282Z,70.20
2018-12-12T09:34:55.311Z,70.20
2018-12-12T09:35:55.648Z,70.39
2018-12-12T09:36:55.377Z,70.01
2018-12-12T09:37:55.453Z,70.10
2018-12-12T09:38:55.483Z,69.91
2018-12-12T09:39:55.559Z,70.20
2018-12-12T09:40:55.504Z,69.91
2018-12-12T09:41:55.532Z,69.91
2018-12-12T09:42:55.866Z,70.39
2018-12-12T09:43:55.642Z,70.20
2018-12-12T09:44:55.612Z,70.29
2018-12-12T09:45:55.700Z,70.10
2018-12-12T09:46:55.783Z,70.20
2018-12-12T09:47:55.762Z,70.01
2018-12-12T09:48:55.811Z,70.10
2018-12-12T09:49:56.072Z,70.01
2018-12-12T09:50:55.803Z,70.17
2018-12-12T09:51:55.830Z,70.01
2018-12-12T09:52:55.909Z,70.10
2018-12-12T09:53:55.894Z,70.10
2018-12-12T09:54:55.921Z,70.29
2018-12-12T09:55:56.008Z,69.72
2018-12-12T09:57:56.308Z,69.72
2018-12-12T09:58:56.096Z,69.53
2018-12-12T09:59:56.130Z,69.72
2018-12-12T10:00:56.156Z,69.62
2018-12-12T10:01:56.131Z,70.01
2018-12-12T10:02:56.166Z,70.01
2018-12-12T10:03:56.244Z,70.01
2018-12-12T10:04:56.574Z,69.43
2018-12-12T10:05:56.268Z,69.34
2018-12-12T10:06:56.284Z,69.53
2018-12-12T10:07:56.374Z,69.72
2018-12-12T10:08:57.568Z,69.81
2018-12-12T10:09:56.430Z,69.62
2018-12-12T10:10:56.409Z,69.62
2018-12-12T10:11:56.748Z,70.01
2018-12-12T10:12:56.477Z,69.91
2018-12-12T10:13:56.557Z,69.81
2018-12-12T10:14:56.542Z,69.81
2018-12-12T10:15:56.617Z,69.62
2018-12-12T10:16:56.597Z,69.72
2018-12-12T10:17:56.674Z,69.43
2018-12-12T10:18:56.703Z,69.53
2018-12-12T10:19:56.742Z,69.72
2018-12-12T10:20:56.720Z,69.62
2018-12-12T10:21:56.800Z,69.43
2018-12-12T10:22:56.832Z,69.43
2018-12-12T10:23:56.875Z,69.72
2018-12-12T10:24:57.145Z,69.53
2018-12-12T10:25:56.918Z,69.24
2018-12-12T10:26:56.952Z,69.14
2018-12-12T10:27:56.932Z,69.24
2018-12-12T10:28:56.962Z,68.95
2018-12-12T10:29:57.043Z,69.24
2018-12-12T10:31:57.358Z,69.24
2018-12-12T10:32:57.082Z,69.34
2018-12-12T10:33:57.166Z,69.24
2018-12-12T10:34:57.192Z,69.24
2018-12-12T10:35:57.256Z,69.24
2018-12-12T10:36:57.284Z,69.05
2018-12-12T10:37:57.534Z,69.24
2018-12-12T10:38:57.288Z,69.43
2018-12-12T10:39:57.363Z,69.05
2018-12-12T10:40:57.387Z,69.43
2018-12-12T10:41:57.370Z,69.05
2018-12-12T10:42:57.396Z,69.24
2018-12-12T10:43:57.478Z,69.24
2018-12-12T10:44:57.455Z,69.14
2018-12-12T10:45:57.566Z,69.05
2018-12-12T10:46:57.573Z,69.05
2018-12-12T10:47:57.608Z,68.95
2018-12-12T10:48:57.576Z,69.34
2018-12-12T10:49:57.606Z,69.34
2018-12-12T10:50:57.697Z,69.24
2018-12-12T10:52:57.718Z,69.43
2018-12-12T10:53:57.746Z,69.34
2018-12-12T10:54:57.771Z,68.66
2018-12-12T10:55:58.109Z,68.95
2018-12-12T10:56:57.880Z,69.05
2018-12-12T10:57:57.868Z,68.95
2018-12-12T10:58:57.883Z,69.14
2018-12-12T10:59:57.965Z,69.14
2018-12-12T11:00:58.012Z,69.05
2018-12-12T11:02:58.333Z,68.76
2018-12-12T11:03:58.094Z,69.05
2018-12-12T11:04:58.422Z,69.05
2018-12-12T11:05:58.104Z,69.05
2018-12-12T11:06:58.228Z,68.85
2018-12-12T11:07:58.176Z,68.51
2018-12-12T11:08:58.244Z,68.57
2018-12-12T11:09:58.226Z,68.79
2018-12-12T11:10:58.307Z,68.89
2018-12-12T11:11:58.336Z,68.76
2018-12-12T11:12:58.373Z,68.89
2018-12-12T11:13:58.354Z,69.08
2018-12-12T11:15:58.458Z,68.89
2018-12-12T11:16:58.442Z,68.51
2018-12-12T11:17:58.524Z,68.98
2018-12-12T11:19:58.582Z,68.70
2018-12-12T11:20:58.616Z,68.60
2018-12-12T11:21:58.645Z,68.70
2018-12-12T11:22:58.994Z,68.60
2018-12-12T11:23:58.708Z,68.70
2018-12-12T11:24:58.683Z,68.41
2018-12-12T11:26:58.812Z,68.60
2018-12-12T11:28:58.865Z,68.60
2018-12-12T11:29:58.846Z,68.51
2018-12-12T11:30:58.925Z,68.60
2018-12-12T11:31:58.953Z,68.51
2018-12-12T11:32:58.982Z,68.31
2018-12-12T11:34:58.999Z,68.02
2018-12-12T11:35:59.330Z,68.41
2018-12-12T11:37:59.137Z,68.21
2018-12-12T11:38:59.174Z,68.21
2018-12-12T11:39:59.210Z,68.60
2018-12-12T11:40:59.230Z,68.98
2018-12-12T11:41:59.510Z,68.02
2018-12-12T11:42:59.246Z,67.93
2018-12-12T11:44:59.307Z,68.31
2018-12-12T11:46:59.419Z,68.31
2018-12-12T11:47:59.457Z,68.41
2018-12-12T11:48:59.582Z,68.51
2018-12-12T11:49:59.458Z,68.41
2018-12-12T11:50:59.487Z,68.41
2018-12-12T11:51:59.578Z,68.51
2018-12-12T11:52:59.608Z,68.51
2018-12-12T11:54:59.615Z,68.02
2018-12-12T11:55:59.944Z,68.02
2018-12-12T11:56:59.677Z,68.21
2018-12-12T11:57:59.756Z,68.31
2018-12-12T11:59:59.820Z,68.21
2018-12-12T12:00:59.878Z,68.31
2018-12-12T12:01:59.828Z,68.12
2018-12-12T12:03:00.165Z,68.12
2018-12-12T12:03:59.962Z,68.31
2018-12-12T12:04:59.983Z,67.93
2018-12-12T12:05:59.957Z,68.21
2018-12-12T12:08:00.016Z,67.83
2018-12-12T12:09:00.122Z,68.12
2018-12-12T12:10:00.390Z,67.83
2018-12-12T12:11:00.130Z,67.93
2018-12-12T12:12:00.145Z,67.83
2018-12-12T12:13:00.249Z,67.74
2018-12-12T12:14:00.265Z,67.74
2018-12-12T12:15:00.289Z,67.83
2018-12-12T12:16:00.380Z,68.12
2018-12-12T12:17:00.300Z,68.12
2018-12-12T12:18:00.377Z,67.93
2018-12-12T12:19:00.369Z,67.83
2018-12-12T12:20:00.445Z,67.64
2018-12-12T12:21:00.477Z,67.54
2018-12-12T12:22:00.458Z,67.54
2018-12-12T12:23:00.480Z,67.54
2018-12-12T12:24:00.566Z,67.64
2018-12-12T12:25:00.543Z,67.83
2018-12-12T12:26:00.652Z,67.64
2018-12-12T12:27:00.712Z,67.64
2018-12-12T12:28:00.696Z,67.54
2018-12-12T12:29:00.677Z,67.54
2018-12-12T12:30:00.711Z,67.54
2018-12-12T12:31:00.789Z,67.35
2018-12-12T12:32:00.794Z,67.64
2018-12-12T12:33:00.846Z,67.45
2018-12-12T12:34:03.382Z,67.35
2018-12-12T12:35:00.874Z,67.54
2018-12-12T12:36:00.944Z,67.35
2018-12-12T12:37:00.989Z,67.25
2018-12-12T12:38:01.006Z,67.25
2018-12-12T12:39:01.037Z,67.45
2018-12-12T12:40:01.073Z,67.45
2018-12-12T12:41:01.387Z,67.64
2018-12-12T12:42:01.150Z,67.74
2018-12-12T12:43:01.160Z,67.68
2018-12-12T12:44:01.190Z,67.64
2018-12-12T12:45:01.238Z,67.68
2018-12-12T12:46:01.207Z,67.54
2018-12-12T12:47:01.541Z,67.83
2018-12-12T12:48:01.278Z,67.77
2018-12-12T12:49:01.347Z,67.54
2018-12-12T12:50:01.381Z,67.64
2018-12-12T12:51:01.424Z,67.25
2018-12-12T12:52:01.673Z,67.29
2018-12-12T12:53:01.514Z,67.35
2018-12-12T12:54:01.765Z,67.68
2018-12-12T12:55:01.534Z,67.29
2018-12-12T12:56:01.563Z,67.07
2018-12-12T12:57:01.567Z,67.16
2018-12-12T12:58:01.627Z,67.07
2018-12-12T12:59:01.622Z,67.16
2018-12-12T13:00:02.254Z,67.19
2018-12-12T13:02:02.006Z,67.19
2018-12-12T13:03:01.789Z,67.16
2018-12-12T13:04:01.819Z,67.10
2018-12-12T13:05:01.847Z,67.29
2018-12-12T13:06:01.832Z,67.35
2018-12-12T13:07:01.862Z,67.38
2018-12-12T13:08:01.941Z,67.38
2018-12-12T13:09:01.936Z,67.10
2018-12-12T13:10:02.014Z,67.00
2018-12-12T13:11:01.986Z,67.38
2018-12-12T13:13:02.115Z,66.81
2018-12-12T13:14:02.135Z,67.19
2018-12-12T13:15:02.417Z,66.91
2018-12-12T13:16:02.191Z,66.87
2018-12-12T13:17:02.232Z,66.91
2018-12-12T13:20:02.268Z,67.00
2018-12-12T13:21:02.349Z,67.10
2018-12-12T13:23:02.664Z,66.81
2018-12-12T13:24:02.447Z,66.71
2018-12-12T13:25:02.479Z,66.91
2018-12-12T13:26:02.514Z,66.91
2018-12-12T13:27:02.492Z,66.91